Time;durP1;ratioP1;P1;durP2;ratioP2;P2;SDS_P1;SDS_P2;PMS_P1;PMS_P2;Temp;Humidity;BMP_temperature;BMP_pressure;BME280_temperature;BME280_humidity;BME280_pressure;Samples;Min_cycle;Max_cycle;Signal;HPM_P1;HPM_P2
2022/05/31 00:01:24;;;;;;;3.75;2.47;;;6.60;99.90;;;;;;5104437;28;20449;-48
2022/05/31 00:03:49;;;;;;;2.50;2.30;;;6.50;99.90;;;;;;5104223;28;20095;-51
2022/05/31 00:06:15;;;;;;;2.38;2.17;;;6.50;99.90;;;;;;5082624;28;20099;-50
2022/05/31 00:08:41;;;;;;;1.88;1.77;;;6.50;99.90;;;;;;5077944;28;20023;-50
2022/05/31 00:11:07;;;;;;;2.13;1.95;;;6.50;99.90;;;;;;5085485;28;20538;-47
2022/05/31 00:13:33;;;;;;;3.17;2.83;;;6.50;99.90;;;;;;5104085;28;20020;-48
2022/05/31 00:15:58;;;;;;;2.83;2.22;;;6.50;99.90;;;;;;5080312;28;20107;-48
2022/05/31 00:18:24;;;;;;;2.40;2.17;;;6.40;99.90;;;;;;5103352;28;20473;-49
2022/05/31 00:20:50;;;;;;;3.65;2.42;;;6.40;99.90;;;;;;5103651;28;20077;-48
2022/05/31 00:23:15;;;;;;;1.75;1.65;;;6.40;99.90;;;;;;5102530;28;20024;-48
2022/05/31 00:25:41;;;;;;;2.72;2.13;;;6.40;99.90;;;;;;5104157;28;20027;-52
2022/05/31 00:28:07;;;;;;;2.58;2.03;;;6.40;99.90;;;;;;5102495;28;20051;-50
2022/05/31 00:30:33;;;;;;;2.33;1.90;;;6.40;99.90;;;;;;5085706;28;20024;-49
2022/05/31 00:33:00;;;;;;;3.00;2.30;;;6.30;99.90;;;;;;5083704;28;20022;-50
2022/05/31 00:35:36;;;;;;;2.33;2.03;;;6.30;99.90;;;;;;5103308;28;20359;-49
2022/05/31 00:38:02;;;;;;;3.55;3.03;;;6.20;99.90;;;;;;5101882;28;20497;-46
2022/05/31 00:40:31;;;;;;;6.53;4.22;;;6.10;99.90;;;;;;5105051;28;20360;-50
2022/05/31 00:43:04;;;;;;;4.35;3.95;;;6.10;99.90;;;;;;5102439;28;20434;-50
2022/05/31 00:45:40;;;;;;;5.32;3.95;;;6.10;99.90;;;;;;5081082;28;20023;-49
2022/05/31 00:48:23;;;;;;;4.13;3.30;;;6.00;99.90;;;;;;5100836;28;20020;-47
2022/05/31 00:50:54;;;;;;;3.13;2.80;;;6.00;99.90;;;;;;5096307;28;20101;-48
2022/05/31 00:53:28;;;;;;;4.07;2.65;;;6.00;99.90;;;;;;5104231;28;20024;-48
2022/05/31 00:56:01;;;;;;;4.43;2.85;;;6.00;99.90;;;;;;5079614;28;20343;-47
2022/05/31 00:58:35;;;;;;;2.50;2.30;;;6.00;99.90;;;;;;5103858;28;20058;-47
2022/05/31 01:01:05;;;;;;;4.32;3.38;;;6.00;99.90;;;;;;5061734;28;20032;-50
2022/05/31 01:03:32;;;;;;;6.28;3.60;;;5.90;99.90;;;;;;5100392;28;20048;-49
2022/05/31 01:05:59;;;;;;;3.58;3.28;;;5.90;99.90;;;;;;5090767;28;20025;-48
2022/05/31 01:08:24;;;;;;;3.22;2.92;;;5.90;99.90;;;;;;5099202;28;20402;-50
2022/05/31 01:10:50;;;;;;;3.28;2.97;;;5.90;99.90;;;;;;5084051;28;20024;-52
2022/05/31 01:13:17;;;;;;;3.20;2.90;;;5.90;99.90;;;;;;5103679;28;20064;-51
2022/05/31 01:15:47;;;;;;;5.10;3.03;;;5.90;99.90;;;;;;5099548;28;20017;-47
2022/05/31 01:18:14;;;;;;;5.43;3.05;;;5.90;99.90;;;;;;5107578;28;20121;-49
2022/05/31 01:20:40;;;;;;;4.05;3.10;;;5.90;99.90;;;;;;5094766;28;20032;-49
2022/05/31 01:23:17;;;;;;;5.22;2.65;;;5.90;99.90;;;;;;5100507;28;20036;-48
2022/05/31 01:26:07;;;;;;;3.95;2.92;;;5.90;99.90;;;;;;5083109;28;20055;-48
2022/05/31 01:28:49;;;;;;;3.33;2.67;;;5.80;99.90;;;;;;5092716;28;20640;-48
2022/05/31 01:31:24;;;;;;;4.47;2.95;;;5.80;99.90;;;;;;5090498;28;20023;-50
2022/05/31 01:33:59;;;;;;;3.45;2.88;;;5.80;99.90;;;;;;5101880;28;20023;-47
2022/05/31 01:36:34;;;;;;;4.55;2.78;;;5.70;99.90;;;;;;5102568;28;20446;-50
2022/05/31 01:39:07;;;;;;;3.60;2.70;;;5.70;99.90;;;;;;5095198;28;20044;-46
2022/05/31 01:41:40;;;;;;;4.07;2.60;;;5.70;99.90;;;;;;5103056;28;20054;-49
2022/05/31 01:44:10;;;;;;;2.90;2.60;;;5.70;99.90;;;;;;5093266;28;20063;-47
2022/05/31 01:46:36;;;;;;;3.92;2.80;;;5.60;99.90;;;;;;5104404;28;20058;-48
2022/05/31 01:49:06;;;;;;;3.58;2.63;;;5.60;99.90;;;;;;5100342;28;20506;-48
2022/05/31 01:51:33;;;;;;;3.83;2.97;;;5.60;99.90;;;;;;5098274;28;20020;-49
2022/05/31 01:53:59;;;;;;;4.35;3.00;;;5.60;99.90;;;;;;5086408;28;20020;-49
2022/05/31 01:56:26;;;;;;;3.53;2.67;;;5.60;99.90;;;;;;5098588;28;20366;-49
2022/05/31 01:58:54;;;;;;;3.00;2.70;;;5.50;99.90;;;;;;5105624;28;20023;-48
2022/05/31 02:01:19;;;;;;;2.83;2.53;;;5.50;99.90;;;;;;5098407;28;20024;-49
2022/05/31 02:03:46;;;;;;;3.20;2.65;;;5.40;99.90;;;;;;5105889;28;20024;-48
2022/05/31 02:06:31;;;;;;;4.72;2.80;;;5.40;99.90;;;;;;5098348;28;20103;-49
2022/05/31 02:08:58;;;;;;;2.90;2.70;;;5.40;99.90;;;;;;5081265;28;20059;-47
2022/05/31 02:11:24;;;;;;;3.58;2.95;;;5.40;99.90;;;;;;5102432;28;20501;-49
2022/05/31 02:13:50;;;;;;;5.68;3.08;;;5.40;99.90;;;;;;5076969;28;20028;-48
2022/05/31 02:16:15;;;;;;;4.88;3.58;;;5.40;99.90;;;;;;5105658;28;20039;-47
2022/05/31 02:21:25;;;;;;;6.05;4.00;;;5.30;99.90;;;;;;5084383;28;20160;-48
2022/05/31 02:23:51;;;;;;;6.63;3.95;;;5.30;99.90;;;;;;5070045;28;20103;-49
2022/05/31 02:26:17;;;;;;;3.97;3.38;;;5.30;99.90;;;;;;5090192;28;20027;-48
2022/05/31 02:28:42;;;;;;;3.33;3.03;;;5.30;99.90;;;;;;5083153;28;20028;-51
2022/05/31 02:31:08;;;;;;;3.55;2.80;;;5.30;99.90;;;;;;5093487;28;20032;-52
2022/05/31 02:33:33;;;;;;;3.80;2.97;;;5.20;99.90;;;;;;5101624;28;20072;-51
2022/05/31 02:35:59;;;;;;;3.65;3.20;;;5.20;99.90;;;;;;5100873;28;20070;-49
2022/05/31 02:38:25;;;;;;;3.25;2.95;;;5.20;99.90;;;;;;5101862;28;20027;-48
2022/05/31 02:40:50;;;;;;;3.50;3.20;;;5.20;99.90;;;;;;5091468;28;20042;-51
2022/05/31 02:43:16;;;;;;;3.65;3.00;;;5.10;99.90;;;;;;5101345;28;20119;-48
2022/05/31 02:45:41;;;;;;;3.70;2.70;;;5.10;99.90;;;;;;5101191;28;20024;-51
2022/05/31 02:48:07;;;;;;;3.42;2.92;;;5.10;99.90;;;;;;5082236;28;20478;-50
2022/05/31 02:50:33;;;;;;;3.08;2.78;;;5.10;99.90;;;;;;5084472;28;20438;-49
2022/05/31 02:52:58;;;;;;;3.63;2.60;;;5.00;99.90;;;;;;5107380;28;20099;-47
2022/05/31 02:55:24;;;;;;;3.33;3.03;;;5.00;99.90;;;;;;5089553;28;20059;-48
2022/05/31 02:57:50;;;;;;;5.15;3.28;;;5.00;99.90;;;;;;5098980;28;20035;-49
2022/05/31 03:00:16;;;;;;;4.75;3.28;;;5.00;99.90;;;;;;5108179;28;20098;-49
2022/05/31 03:02:42;;;;;;;3.55;3.08;;;5.00;99.90;;;;;;5107731;28;20106;-47
2022/05/31 03:05:08;;;;;;;3.55;3.00;;;5.00;99.90;;;;;;5107213;28;20028;-52
2022/05/31 03:07:33;;;;;;;3.55;2.97;;;4.90;99.90;;;;;;5089515;28;20019;-52
2022/05/31 03:09:59;;;;;;;3.25;2.92;;;4.90;99.90;;;;;;5087128;28;20077;-48
2022/05/31 03:12:27;;;;;;;5.32;2.90;;;4.90;99.90;;;;;;5106797;28;20028;-49
2022/05/31 03:14:58;;;;;;;3.53;2.88;;;4.80;99.90;;;;;;5106234;28;20504;-48
2022/05/31 03:17:31;;;;;;;3.85;3.38;;;4.90;99.90;;;;;;5087108;28;20038;-48
2022/05/31 03:20:04;;;;;;;3.45;3.08;;;4.80;99.90;;;;;;5088838;28;20522;-49
2022/05/31 03:22:35;;;;;;;3.45;2.92;;;4.80;99.90;;;;;;5107594;28;20465;-48
2022/05/31 03:25:06;;;;;;;10.13;3.40;;;4.80;99.90;;;;;;5105733;28;20569;-49
2022/05/31 03:27:32;;;;;;;2.88;2.55;;;4.80;99.90;;;;;;5108144;28;20100;-48
2022/05/31 03:30:00;;;;;;;5.18;3.20;;;4.80;99.90;;;;;;5106339;28;20031;-51
2022/05/31 03:32:27;;;;;;;5.45;3.25;;;4.80;99.90;;;;;;5102765;28;20493;-49
2022/05/31 03:34:52;;;;;;;3.80;3.00;;;4.80;99.90;;;;;;5107200;28;20454;-49
2022/05/31 03:37:18;;;;;;;4.22;2.70;;;4.80;99.90;;;;;;5104004;28;20066;-48
2022/05/31 03:39:44;;;;;;;3.10;2.83;;;4.80;99.90;;;;;;5109949;28;20028;-50
2022/05/31 03:42:10;;;;;;;4.38;3.10;;;4.80;99.90;;;;;;5085805;28;20477;-48
2022/05/31 03:44:36;;;;;;;4.20;3.00;;;4.70;99.90;;;;;;5109496;28;20033;-49
2022/05/31 03:47:03;;;;;;;3.72;2.92;;;4.70;99.90;;;;;;5105705;28;20031;-48
2022/05/31 03:49:30;;;;;;;4.80;4.10;;;4.80;99.90;;;;;;5090950;28;20051;-49
2022/05/31 03:51:56;;;;;;;4.05;3.35;;;4.80;99.90;;;;;;5088212;28;20020;-48
2022/05/31 03:54:22;;;;;;;3.63;3.33;;;4.80;99.90;;;;;;5085700;28;20497;-48
2022/05/31 03:56:47;;;;;;;4.30;3.03;;;4.80;99.90;;;;;;5110550;28;20038;-48
2022/05/31 03:59:13;;;;;;;4.38;3.90;;;4.80;99.90;;;;;;5104165;28;20028;-48
2022/05/31 04:01:38;;;;;;;4.47;3.42;;;4.80;99.90;;;;;;5085491;28;20023;-48
2022/05/31 04:04:04;;;;;;;4.97;3.78;;;4.80;99.90;;;;;;5083030;28;20032;-49
2022/05/31 04:06:35;;;;;;;4.63;3.80;;;4.90;99.90;;;;;;5103975;28;20095;-52
2022/05/31 04:09:01;;;;;;;6.32;3.58;;;4.90;99.90;;;;;;5103186;28;20474;-49
2022/05/31 04:11:27;;;;;;;5.20;3.22;;;4.90;99.90;;;;;;5103061;28;20024;-50
2022/05/31 04:13:54;;;;;;;4.15;3.45;;;4.90;99.90;;;;;;5084856;28;20053;-50
2022/05/31 04:16:20;;;;;;;4.75;4.00;;;4.90;99.90;;;;;;5102333;28;20553;-50
2022/05/31 04:18:46;;;;;;;4.95;3.72;;;4.90;99.90;;;;;;5103550;28;20367;-49
2022/05/31 04:21:16;;;;;;;4.57;3.70;;;5.00;99.90;;;;;;5101635;28;20477;-48
2022/05/31 04:23:59;;;;;;;4.35;3.78;;;5.00;99.90;;;;;;5085803;28;20085;-48
2022/05/31 04:26:26;;;;;;;5.78;3.72;;;5.00;99.90;;;;;;5085780;28;20024;-48
2022/05/31 04:28:52;;;;;;;5.05;3.13;;;5.00;99.90;;;;;;5103182;28;20034;-49
2022/05/31 04:31:17;;;;;;;4.88;4.20;;;5.00;99.90;;;;;;5091533;28;20777;-51
2022/05/31 04:33:43;;;;;;;4.85;4.30;;;5.00;99.90;;;;;;5104130;28;20020;-48
2022/05/31 04:36:13;;;;;;;5.25;3.40;;;5.00;99.90;;;;;;5102845;28;20034;-48
2022/05/31 04:38:39;;;;;;;4.10;3.22;;;5.10;99.90;;;;;;5102810;28;20498;-50
2022/05/31 04:41:06;;;;;;;4.45;3.53;;;5.10;99.90;;;;;;5101817;28;20036;-48
2022/05/31 04:43:34;;;;;;;3.58;3.28;;;5.20;99.90;;;;;;5084788;28;20478;-47
2022/05/31 04:46:11;;;;;;;4.85;3.45;;;5.20;99.90;;;;;;5083316;28;20042;-49
2022/05/31 04:48:37;;;;;;;5.07;3.90;;;5.20;99.90;;;;;;5103271;28;20028;-52
2022/05/31 04:51:03;;;;;;;4.20;3.78;;;5.30;99.90;;;;;;5102700;28;20023;-49
2022/05/31 04:53:28;;;;;;;6.65;4.00;;;5.40;99.90;;;;;;5103077;28;20520;-48
2022/05/31 04:56:03;;;;;;;4.55;3.53;;;5.40;99.90;;;;;;5101265;28;20031;-51
2022/05/31 04:58:28;;;;;;;5.93;4.85;;;5.50;99.90;;;;;;5069110;28;20035;-48
2022/05/31 05:00:54;;;;;;;7.10;4.88;;;5.60;99.90;;;;;;5101790;28;20036;-49
2022/05/31 05:03:19;;;;;;;5.72;4.80;;;5.70;99.90;;;;;;5103004;28;20135;-47
2022/05/31 05:05:45;;;;;;;4.93;4.43;;;5.80;99.90;;;;;;5103161;28;20039;-49
2022/05/31 05:08:11;;;;;;;6.13;4.57;;;5.90;99.90;;;;;;5103092;28;20020;-50
2022/05/31 05:10:37;;;;;;;5.35;3.70;;;6.00;99.90;;;;;;5103276;28;20016;-48
2022/05/31 05:13:03;;;;;;;5.22;4.00;;;6.00;99.90;;;;;;5100573;28;20016;-47
2022/05/31 05:15:29;;;;;;;6.38;4.55;;;6.10;99.90;;;;;;5084432;28;20556;-49
2022/05/31 05:17:55;;;;;;;5.38;4.18;;;6.20;99.90;;;;;;5083274;28;20043;-48
2022/05/31 05:20:22;;;;;;;6.13;4.60;;;6.30;99.90;;;;;;5102587;28;20076;-48
2022/05/31 05:22:47;;;;;;;7.70;5.78;;;6.40;99.90;;;;;;5084116;28;20450;-48
2022/05/31 05:25:13;;;;;;;8.20;6.65;;;6.60;99.90;;;;;;5102434;28;20034;-50
2022/05/31 05:27:39;;;;;;;9.15;5.28;;;6.70;99.90;;;;;;5102496;28;20502;-48
2022/05/31 05:32:49;;;;;;;5.93;4.78;;;7.00;99.90;;;;;;5095784;28;20036;-46
2022/05/31 05:35:14;;;;;;;4.43;3.92;;;7.20;99.90;;;;;;5104299;28;20028;-49
2022/05/31 05:37:40;;;;;;;5.22;3.30;;;7.40;99.90;;;;;;5098848;28;20024;-52
2022/05/31 05:40:06;;;;;;;4.70;3.47;;;7.70;99.90;;;;;;5105302;28;20055;-51
2022/05/31 05:42:32;;;;;;;4.13;2.83;;;7.90;99.90;;;;;;5080349;28;20063;-48
2022/05/31 05:44:59;;;;;;;3.58;3.08;;;8.20;99.90;;;;;;5106103;28;20449;-48
2022/05/31 05:47:25;;;;;;;3.00;2.60;;;8.60;99.90;;;;;;5092976;28;20027;-49
2022/05/31 05:49:52;;;;;;;2.55;1.85;;;8.80;99.90;;;;;;5106424;28;20469;-48
2022/05/31 05:52:17;;;;;;;1.80;1.65;;;9.10;99.90;;;;;;5098427;28;20488;-50
2022/05/31 05:54:43;;;;;;;2.33;1.55;;;9.30;99.90;;;;;;5106089;28;20043;-48
2022/05/31 05:57:09;;;;;;;6.40;1.98;;;9.60;99.90;;;;;;5080966;28;20028;-52
2022/05/31 05:59:35;;;;;;;2.67;1.65;;;9.80;99.90;;;;;;5098362;28;20056;-49
2022/05/31 06:02:10;;;;;;;1.23;1.13;;;10.10;99.90;;;;;;5086278;28;20024;-49
2022/05/31 06:04:44;;;;;;;1.88;1.23;;;10.30;99.90;;;;;;5053250;28;20052;-49
2022/05/31 06:07:15;;;;;;;1.15;1.05;;;10.50;99.90;;;;;;5105021;28;20083;-47
2022/05/31 06:09:46;;;;;;;1.77;1.10;;;10.70;99.90;;;;;;5080232;28;20103;-49
2022/05/31 06:12:16;;;;;;;1.83;0.98;;;10.90;99.90;;;;;;5089003;28;20016;-49
2022/05/31 06:15:04;;;;;;;2.08;1.20;;;11.10;99.90;;;;;;5080018;28;20015;-50
2022/05/31 06:17:35;;;;;;;2.60;0.60;;;11.20;99.90;;;;;;5087626;28;20490;-50
2022/05/31 06:20:05;;;;;;;2.75;1.15;;;11.40;99.90;;;;;;5099355;28;20371;-48
2022/05/31 06:22:31;;;;;;;1.92;1.02;;;11.60;99.90;;;;;;5101581;28;20023;-49
2022/05/31 06:25:00;;;;;;;2.17;1.10;;;11.80;99.90;;;;;;5100616;28;20028;-48
2022/05/31 06:27:25;;;;;;;1.10;0.90;;;11.90;99.90;;;;;;5083909;28;20031;-47
2022/05/31 06:29:51;;;;;;;1.45;1.33;;;12.10;99.90;;;;;;5098898;28;20016;-50
2022/05/31 06:32:17;;;;;;;1.50;1.00;;;12.30;99.90;;;;;;5078856;28;20022;-50
2022/05/31 06:34:42;;;;;;;0.88;0.70;;;12.40;99.90;;;;;;5101091;28;20023;-52
2022/05/31 06:37:11;;;;;;;4.80;1.15;;;12.60;99.90;;;;;;5080362;28;20024;-52
2022/05/31 06:39:39;;;;;;;2.05;0.88;;;12.80;99.90;;;;;;5102778;28;20508;-48
2022/05/31 06:42:06;;;;;;;2.90;1.00;;;12.80;99.90;;;;;;5080639;28;20042;-49
2022/05/31 06:44:36;;;;;;;2.17;0.93;;;13.10;99.90;;;;;;5084530;28;20047;-49
2022/05/31 06:47:02;;;;;;;1.55;0.68;;;13.20;99.90;;;;;;5099663;28;20024;-48
2022/05/31 06:49:30;;;;;;;0.68;0.68;;;13.20;99.90;;;;;;5103044;28;20095;-50
2022/05/31 06:57:29;;;;;;;1.17;0.52;;;12.30;99.90;;;;;;5093041;28;20039;-49
2022/05/31 06:59:55;;;;;;;0.63;0.60;;;12.00;99.90;;;;;;5098549;28;20039;-48
2022/05/31 07:02:20;;;;;;;0.70;0.70;;;12.00;99.90;;;;;;5075991;28;20020;-48
2022/05/31 07:04:46;;;;;;;0.98;0.60;;;11.90;99.90;;;;;;5103587;28;20027;-49
2022/05/31 07:07:11;;;;;;;1.15;0.75;;;11.90;99.90;;;;;;5076521;28;20020;-48
2022/05/31 07:09:37;;;;;;;2.53;0.90;;;11.90;99.90;;;;;;5095060;28;20024;-51
2022/05/31 07:12:03;;;;;;;0.73;0.60;;;12.20;99.90;;;;;;5094504;28;20025;-48
2022/05/31 07:14:28;;;;;;;0.93;0.80;;;12.70;99.90;;;;;;5101126;28;20034;-49
2022/05/31 07:16:54;;;;;;;0.63;0.55;;;13.10;99.90;;;;;;5100070;28;20039;-53
2022/05/31 07:19:20;;;;;;;1.17;0.63;;;13.40;99.90;;;;;;5099764;28;20080;-49
2022/05/31 07:21:45;;;;;;;2.15;0.65;;;13.80;99.90;;;;;;5077604;28;20059;-49
2022/05/31 07:24:11;;;;;;;2.67;0.63;;;14.10;99.90;;;;;;5089778;28;20020;-52
2022/05/31 07:26:38;;;;;;;1.75;0.80;;;14.30;99.90;;;;;;5100631;28;20027;-50
2022/05/31 07:29:03;;;;;;;1.48;0.77;;;14.50;99.90;;;;;;5082562;28;20016;-51
2022/05/31 07:31:29;;;;;;;3.28;1.00;;;14.70;99.90;;;;;;5100960;28;20091;-48
2022/05/31 07:33:55;;;;;;;0.50;0.50;;;15.00;99.90;;;;;;5100239;28;20058;-51
2022/05/31 07:36:21;;;;;;;1.55;0.63;;;15.30;99.90;;;;;;5099956;28;20474;-51
2022/05/31 07:38:46;;;;;;;0.60;0.60;;;15.70;99.90;;;;;;5081055;28;20019;-49
2022/05/31 07:41:12;;;;;;;0.95;0.60;;;15.90;99.90;;;;;;5100924;28;20020;-51
2022/05/31 07:43:38;;;;;;;0.50;0.50;;;16.10;99.90;;;;;;5105367;28;20469;-53
2022/05/31 07:46:07;;;;;;;0.65;0.40;;;16.40;99.90;;;;;;5103066;28;20114;-50
2022/05/31 07:48:37;;;;;;;2.10;1.10;;;16.70;99.90;;;;;;5105599;28;20028;-52
2022/05/31 07:51:03;;;;;;;2.47;0.60;;;16.60;99.90;;;;;;5102655;28;20171;-48
2022/05/31 07:53:29;;;;;;;1.83;0.50;;;16.30;99.90;;;;;;5105145;28;20020;-51
2022/05/31 07:55:59;;;;;;;1.30;0.77;;;16.00;99.90;;;;;;5103528;28;20031;-51
2022/05/31 07:58:31;;;;;;;0.95;0.50;;;15.40;99.90;;;;;;5087223;28;20042;-53
2022/05/31 08:00:57;;;;;;;0.40;0.40;;;15.00;99.90;;;;;;5085083;28;20031;-51
2022/05/31 08:03:24;;;;;;;0.88;0.50;;;14.70;99.90;;;;;;5100521;28;20101;-50
2022/05/31 08:05:49;;;;;;;0.93;0.63;;;14.40;99.90;;;;;;5088578;28;20092;-52
2022/05/31 08:08:15;;;;;;;0.60;0.60;;;14.30;99.90;;;;;;5100583;28;20081;-49
2022/05/31 08:10:40;;;;;;;1.40;0.73;;;14.70;99.90;;;;;;5099373;28;20092;-52
2022/05/31 08:13:06;;;;;;;1.65;0.70;;;15.00;99.90;;;;;;5101419;28;20030;-49
2022/05/31 08:15:32;;;;;;;1.80;0.70;;;15.30;99.90;;;;;;5082070;28;20020;-49
2022/05/31 08:17:57;;;;;;;1.52;1.42;;;15.70;99.90;;;;;;5088936;28;20039;-50
2022/05/31 08:20:23;;;;;;;1.98;0.65;;;16.00;99.90;;;;;;5100146;28;20047;-51
2022/05/31 08:22:49;;;;;;;0.95;0.73;;;16.00;99.90;;;;;;5107350;28;20038;-49
2022/05/31 08:25:15;;;;;;;0.80;0.50;;;15.80;99.90;;;;;;5089691;28;20053;-49
2022/05/31 08:27:41;;;;;;;0.90;0.60;;;15.40;99.90;;;;;;5089039;28;20435;-50
2022/05/31 08:30:08;;;;;;;4.68;0.65;;;15.00;99.90;;;;;;5101260;28;20080;-50
2022/05/31 08:32:34;;;;;;;1.98;0.40;;;14.50;99.90;;;;;;5081494;28;20024;-50
2022/05/31 08:35:00;;;;;;;0.70;0.70;;;14.50;99.90;;;;;;5128589;22;20044;-53
2022/05/31 08:37:27;;;;;;;0.57;0.55;;;14.90;99.90;;;;;;5110394;28;20492;-50
2022/05/31 08:39:52;;;;;;;0.95;0.70;;;15.40;99.90;;;;;;5111230;28;20508;-52
2022/05/31 08:42:45;;;;;;;3.80;0.57;;;15.90;99.90;;;;;;5104866;28;20060;-50
2022/05/31 08:45:45;;;;;;;0.40;0.30;;;16.40;99.90;;;;;;5108728;28;20020;-47
2022/05/31 08:48:33;;;;;;;1.30;0.60;;;16.90;99.90;;;;;;5102345;28;20462;-50
2022/05/31 08:56:59;;;;;;;0.45;0.40;;;17.40;98.70;;;;;;5104116;28;20432;-46
2022/05/31 08:59:41;;;;;;;0.30;0.30;;;17.80;98.70;;;;;;5099736;28;20016;-47
2022/05/31 09:02:22;;;;;;;1.00;0.50;;;18.10;98.70;;;;;;5107891;28;20374;-46
2022/05/31 09:04:59;;;;;;;1.48;0.60;;;18.10;95.90;;;;;;5099985;28;20055;-49
2022/05/31 09:07:31;;;;;;;2.63;0.43;;;17.70;98.60;;;;;;5090138;28;20024;-47
2022/05/31 09:10:07;;;;;;;0.40;0.40;;;17.20;97.20;;;;;;5100688;28;20494;-47
2022/05/31 09:12:32;;;;;;;1.10;0.57;;;16.60;97.60;;;;;;5102594;28;20098;-50
2022/05/31 09:15:19;;;;;;;0.60;0.30;;;16.20;99.90;;;;;;5100951;28;20142;-50
2022/05/31 09:18:04;;;;;;;0.60;0.60;;;15.90;99.70;;;;;;5087037;28;20051;-51
2022/05/31 09:20:42;;;;;;;0.82;0.30;;;15.80;99.90;;;;;;5079316;28;20601;-47
2022/05/31 09:23:09;;;;;;;1.75;0.30;;;16.00;99.90;;;;;;5106478;28;20534;-49
2022/05/31 09:25:41;;;;;;;0.40;0.40;;;16.30;99.90;;;;;;5099004;28;20023;-48
2022/05/31 09:28:40;;;;;;;1.42;0.75;;;16.50;99.90;;;;;;5107284;28;20476;-52
2022/05/31 09:31:43;;;;;;;1.98;0.45;;;16.90;99.90;;;;;;5100317;28;20028;-50
2022/05/31 09:34:31;;;;;;;1.35;0.68;;;17.20;99.40;;;;;;5100228;28;20160;-52
2022/05/31 09:37:15;;;;;;;0.57;0.40;;;17.10;96.40;;;;;;5101161;28;20073;-50
2022/05/31 09:40:36;;;;;;;0.70;0.40;;;17.10;99.90;;;;;;5100441;28;20035;-49
2022/05/31 09:43:25;;;;;;;0.80;0.80;;;17.40;99.90;;;;;;5074958;28;20075;-48
2022/05/31 09:46:19;;;;;;;1.30;0.47;;;17.60;99.90;;;;;;5101789;28;20023;-50
2022/05/31 09:48:48;;;;;;;2.17;0.40;;;17.80;99.20;;;;;;5102388;28;20020;-49
2022/05/31 09:51:32;;;;;;;0.63;0.50;;;17.90;97.40;;;;;;5099883;28;20467;-49
2022/05/31 09:59:29;;;;;;;0.50;0.43;;;17.50;91.90;;;;;;5095240;28;20038;-48
2022/05/31 10:02:01;;;;;;;0.55;0.50;;;17.60;98.70;;;;;;5105751;28;20070;-48
2022/05/31 10:04:31;;;;;;;0.45;0.43;;;17.70;97.50;;;;;;5098146;28;20028;-46
2022/05/31 10:07:01;;;;;;;1.23;0.60;;;17.80;96.60;;;;;;5099534;28;20044;-48
2022/05/31 10:09:39;;;;;;;1.38;0.40;;;17.70;97.50;;;;;;5103222;28;20016;-51
2022/05/31 10:12:13;;;;;;;0.40;0.40;;;17.70;96.20;;;;;;5100248;28;20020;-48
2022/05/31 10:14:45;;;;;;;1.70;0.50;;;17.60;94.10;;;;;;5101633;28;20015;-47
2022/05/31 10:17:24;;;;;;;0.40;0.40;;;17.40;96.30;;;;;;5099539;28;20412;-46
2022/05/31 10:20:09;;;;;;;0.75;0.40;;;17.10;96.90;;;;;;5101236;28;20405;-47
2022/05/31 10:22:35;;;;;;;1.00;0.63;;;16.90;93.50;;;;;;5098220;28;20466;-46
2022/05/31 10:25:27;;;;;;;0.40;0.30;;;16.60;97.40;;;;;;5099791;28;20035;-46
2022/05/31 10:28:02;;;;;;;0.30;0.30;;;16.50;94.60;;;;;;5091729;28;20502;-47
2022/05/31 10:30:29;;;;;;;0.45;0.45;;;16.60;96.30;;;;;;5097834;28;20042;-48
2022/05/31 10:33:04;;;;;;;0.30;0.30;;;16.50;93.60;;;;;;5098642;28;20043;-46
2022/05/31 10:35:33;;;;;;;1.80;0.40;;;16.50;92.40;;;;;;5102094;28;20024;-48
2022/05/31 10:38:16;;;;;;;0.73;0.32;;;16.50;98.90;;;;;;5099260;28;20043;-48
2022/05/31 10:40:45;;;;;;;1.30;0.50;;;16.60;98.20;;;;;;5101036;28;20442;-51
2022/05/31 10:43:35;;;;;;;0.65;0.60;;;16.60;96.70;;;;;;5099226;28;20020;-52
2022/05/31 10:46:31;;;;;;;0.47;0.40;;;16.40;97.90;;;;;;5100425;28;20020;-50
2022/05/31 10:49:02;;;;;;;0.30;0.30;;;16.40;94.80;;;;;;5075786;28;20040;-48
2022/05/31 10:52:01;;;;;;;1.70;0.75;;;16.40;98.30;;;;;;5097665;28;20024;-50
2022/05/31 10:54:56;;;;;;;0.50;0.40;;;16.20;95.40;;;;;;5092033;28;20028;-47
2022/05/31 10:57:40;;;;;;;0.30;0.30;;;16.10;94.80;;;;;;5088098;28;20030;-47
2022/05/31 11:00:20;;;;;;;0.40;0.20;;;16.10;94.40;;;;;;5099394;28;20031;-47
2022/05/31 11:02:48;;;;;;;0.60;0.60;;;16.30;95.50;;;;;;5100921;28;20028;-46
2022/05/31 11:05:19;;;;;;;0.60;0.40;;;16.60;94.40;;;;;;5089810;28;20020;-47
2022/05/31 11:14:09;;;;;;;0.60;0.60;;;17.20;93.90;;;;;;5096386;28;20516;-49
2022/05/31 11:17:07;;;;;;;1.77;0.65;;;17.40;92.20;;;;;;5094926;28;20579;-50
2022/05/31 11:19:58;;;;;;;1.63;0.75;;;17.20;95.50;;;;;;5097251;28;20376;-46
2022/05/31 11:22:29;;;;;;;0.95;0.55;;;17.10;96.50;;;;;;5105225;28;20111;-47
2022/05/31 11:25:19;;;;;;;0.90;0.60;;;17.30;95.90;;;;;;5104271;28;20024;-47
2022/05/31 11:27:56;;;;;;;0.65;0.50;;;17.10;96.60;;;;;;5105060;28;20024;-47
2022/05/31 11:30:33;;;;;;;0.50;0.38;;;17.20;95.00;;;;;;5096790;28;20534;-50
2022/05/31 11:33:36;;;;;;;0.68;0.50;;;17.20;88.70;;;;;;5102778;28;20551;-46
2022/05/31 11:36:32;;;;;;;1.98;0.65;;;17.30;90.80;;;;;;5101640;28;20028;-48
2022/05/31 11:39:33;;;;;;;0.60;0.40;;;17.20;86.90;;;;;;5103769;28;20077;-51
2022/05/31 11:42:04;;;;;;;1.27;0.63;;;17.30;88.90;;;;;;5103547;28;20508;-48
2022/05/31 11:44:53;;;;;;;0.95;0.52;;;17.30;88.10;;;;;;5098388;28;20024;-52
2022/05/31 11:47:37;;;;;;;0.32;0.20;;;17.30;90.20;;;;;;5096114;28;20027;-47
2022/05/31 11:50:15;;;;;;;0.40;0.40;;;17.50;90.00;;;;;;5103252;28;20024;-48
2022/05/31 11:52:52;;;;;;;0.73;0.50;;;17.60;87.20;;;;;;5103653;28;20038;-48
2022/05/31 11:55:35;;;;;;;0.65;0.55;;;17.80;90.70;;;;;;5090269;28;20070;-50
2022/05/31 11:58:16;;;;;;;3.22;0.52;;;18.00;89.00;;;;;;5103420;28;20051;-48
2022/05/31 12:00:46;;;;;;;0.70;0.63;;;18.00;84.70;;;;;;5104607;28;20059;-49
2022/05/31 12:03:40;;;;;;;0.32;0.30;;;18.00;87.20;;;;;;5103838;28;20478;-48
2022/05/31 12:06:15;;;;;;;1.40;0.65;;;18.20;91.20;;;;;;5101802;28;20055;-51
2022/05/31 12:08:50;;;;;;;0.80;0.80;;;18.40;90.50;;;;;;5106066;28;20419;-55
2022/05/31 12:11:29;;;;;;;0.93;0.68;;;18.30;87.10;;;;;;5096104;28;20024;-48
2022/05/31 12:13:57;;;;;;;0.98;0.60;;;18.10;85.20;;;;;;5098630;28;20019;-51
2022/05/31 12:16:23;;;;;;;1.10;0.63;;;18.10;84.70;;;;;;5104276;28;20035;-48
2022/05/31 12:18:59;;;;;;;1.98;0.73;;;18.10;87.00;;;;;;5102506;28;20478;-47
2022/05/31 12:21:33;;;;;;;;;;;18.30;90.00;;;;;;5073130;28;20454;-48
2022/05/31 12:24:10;;;;;;;1.83;0.50;;;18.40;84.40;;;;;;5101805;28;19904;-50
2022/05/31 12:26:45;;;;;;;0.77;0.50;;;18.40;85.50;;;;;;5103851;28;20478;-47
2022/05/31 12:29:25;;;;;;;0.45;0.40;;;17.90;81.40;;;;;;5102942;28;20032;-49
2022/05/31 12:31:51;;;;;;;0.68;0.55;;;17.70;83.40;;;;;;5103100;28;20038;-46
2022/05/31 12:34:20;;;;;;;0.98;0.50;;;17.70;86.10;;;;;;5101870;28;20494;-46
2022/05/31 12:37:08;;;;;;;2.13;0.60;;;17.80;90.20;;;;;;5103648;28;20034;-48
2022/05/31 12:39:36;;;;;;;0.25;0.20;;;18.00;90.60;;;;;;5081446;28;20022;-45
2022/05/31 12:42:14;;;;;;;1.23;0.73;;;18.10;90.10;;;;;;5083002;28;20596;-47
2022/05/31 12:44:40;;;;;;;0.45;0.45;;;18.10;86.00;;;;;;5102651;28;20020;-50
2022/05/31 12:47:10;;;;;;;0.20;0.20;;;18.00;87.40;;;;;;5101129;28;20076;-50
2022/05/31 12:50:07;;;;;;;1.10;0.52;;;17.90;85.50;;;;;;5099799;28;20020;-53
2022/05/31 12:55:32;;;;;;;1.42;0.40;;;17.90;84.00;;;;;;5085287;28;20036;-50
2022/05/31 12:58:33;;;;;;;0.65;0.50;;;17.90;84.60;;;;;;5090570;28;20527;-51
2022/05/31 13:01:16;;;;;;;2.28;0.55;;;18.00;89.40;;;;;;5103006;28;20028;-50
2022/05/31 13:03:50;;;;;;;0.65;0.40;;;18.00;88.70;;;;;;5098392;28;20385;-48
2022/05/31 13:06:34;;;;;;;0.45;0.40;;;18.10;86.00;;;;;;5087371;28;20606;-51
2022/05/31 13:09:25;;;;;;;1.08;0.45;;;18.10;85.30;;;;;;5098163;28;20516;-49
2022/05/31 13:20:42;;;;;;;0.45;0.30;;;18.00;82.50;;;;;;5093609;28;20058;-49
2022/05/31 13:23:16;;;;;;;0.70;0.30;;;17.90;84.30;;;;;;5093513;28;20032;-48
2022/05/31 13:25:54;;;;;;;0.35;0.35;;;17.80;83.90;;;;;;5100390;28;20164;-47
2022/05/31 13:28:36;;;;;;;0.20;0.20;;;17.80;89.00;;;;;;5089682;28;20062;-50
2022/05/31 13:31:17;;;;;;;0.52;0.43;;;17.60;84.20;;;;;;5084173;28;20016;-47
2022/05/31 13:33:46;;;;;;;0.85;0.35;;;17.60;84.30;;;;;;5103249;28;20068;-46
2022/05/31 13:36:19;;;;;;;1.02;0.38;;;17.60;83.90;;;;;;5099661;28;20081;-47
2022/05/31 13:38:47;;;;;;;0.60;0.22;;;17.70;84.80;;;;;;5098429;28;20084;-46
2022/05/31 13:41:15;;;;;;;1.52;0.40;;;17.70;82.50;;;;;;5093059;28;20070;-46
2022/05/31 13:43:47;;;;;;;2.10;0.63;;;17.60;82.90;;;;;;5102545;28;20024;-47
2022/05/31 13:46:30;;;;;;;0.93;0.60;;;17.60;82.70;;;;;;5102039;28;20524;-47
2022/05/31 13:49:02;;;;;;;1.13;0.40;;;17.50;84.80;;;;;;5101346;28;20031;-49
2022/05/31 13:51:31;;;;;;;1.98;0.52;;;17.40;87.90;;;;;;5098424;28;20437;-46
2022/05/31 13:54:08;;;;;;;0.85;0.40;;;17.30;87.50;;;;;;5105325;28;20020;-46
2022/05/31 13:56:35;;;;;;;0.35;0.35;;;17.30;80.10;;;;;;5098902;28;20386;-49